createdAt,value
2023-05-12T00:03:53.738Z,66229.56
2023-05-12T00:08:57.973Z,66227.34
2023-05-12T00:14:03.340Z,66202.59
2023-05-12T00:19:07.503Z,66219.38
2023-05-12T00:24:11.627Z,66175.97
2023-05-12T00:29:16.888Z,66202.13
2023-05-12T00:34:20.906Z,66232.63
2023-05-12T00:39:24.855Z,66226.88
2023-05-12T00:44:30.267Z,66174.38
2023-05-12T00:49:34.300Z,66256.41
2023-05-12T00:54:39.931Z,66203.13
2023-05-12T00:59:45.219Z,66227.88
2023-05-12T01:04:49.956Z,66228.84
2023-05-12T01:09:58.233Z,66267.56
2023-05-12T01:15:05.672Z,66314.84
2023-05-12T01:20:13.208Z,66342.75
2023-05-12T01:25:18.867Z,66315.38
2023-05-12T01:30:25.871Z,66354.03
2023-05-12T01:35:30.082Z,66338.38
2023-05-12T01:40:38.640Z,66302.97
2023-05-12T01:45:44.146Z,66369.66
2023-05-12T01:50:48.134Z,66312.78
2023-05-12T01:55:56.874Z,66290.88
2023-05-12T02:01:03.786Z,66323.34
2023-05-12T02:06:08.073Z,66300.28
2023-05-12T02:11:12.759Z,66237.44
2023-05-12T02:16:18.214Z,66210.72
2023-05-12T02:21:22.796Z,66231.16
2023-05-12T02:26:28.701Z,66259.44
2023-05-12T02:31:34.060Z,66242.44
2023-05-12T02:36:38.453Z,66277.84
2023-05-12T02:41:42.951Z,66209.66
2023-05-12T02:46:49.230Z,66191.50
2023-05-12T02:51:54.964Z,66132.03
2023-05-12T02:56:59.898Z,66171.13
2023-05-12T03:02:06.142Z,66174.91
2023-05-12T03:07:10.735Z,66086.50
2023-05-12T03:12:14.727Z,66100.78
2023-05-12T03:17:20.272Z,66071.50
2023-05-12T03:22:25.809Z,66040.97
2023-05-12T03:27:30.126Z,66061.16
2023-05-12T03:32:35.679Z,66090.25
2023-05-12T03:37:40.003Z,66132.03
2023-05-12T03:42:45.572Z,66153.38
2023-05-12T03:47:51.107Z,66149.16
2023-05-12T03:52:56.204Z,66086.41
2023-05-12T03:58:00.207Z,66128.72
2023-05-12T04:03:05.739Z,66158.13
2023-05-12T04:08:10.631Z,66213.31
2023-05-12T04:13:14.665Z,66223.66
2023-05-12T04:18:20.082Z,66240.22
2023-05-12T04:23:24.388Z,66196.50
2023-05-12T04:28:30.632Z,66191.88
2023-05-12T04:33:36.121Z,66219.91
2023-05-12T04:38:41.769Z,66273.47
2023-05-12T04:48:54.761Z,66334.63
2023-05-12T04:53:58.694Z,66342.28
2023-05-12T04:59:03.258Z,66303.06
2023-05-12T05:04:08.852Z,66357.34
2023-05-12T05:09:13.131Z,66376.84
2023-05-12T05:14:17.071Z,66381.94
2023-05-12T05:19:32.448Z,66450.50
2023-05-12T05:24:48.870Z,66411.38
2023-05-12T05:29:53.244Z,66417.38
2023-05-12T05:34:58.726Z,66407.69
2023-05-12T05:40:03.600Z,66407.97
2023-05-12T05:45:09.690Z,66356.69
2023-05-12T05:50:15.174Z,66434.03
2023-05-12T05:55:19.640Z,66455.34
2023-05-12T06:00:24.119Z,66466.94
2023-05-12T06:05:30.869Z,66508.06
2023-05-12T06:10:35.110Z,66611.28
2023-05-12T06:15:39.404Z,66725.16
2023-05-12T06:20:44.773Z,66647.75
2023-05-12T06:25:50.308Z,66680.69
2023-05-12T06:30:54.397Z,66743.13
2023-05-12T06:35:59.772Z,66553.81
2023-05-12T06:41:03.742Z,66558.56
2023-05-12T06:46:08.670Z,66596.75
2023-05-12T06:51:14.323Z,66627.38
2023-05-12T06:56:18.402Z,66696.69
2023-05-12T07:01:22.535Z,66694.53
2023-05-12T07:06:28.686Z,66755.97
2023-05-12T07:11:32.579Z,66794.78
2023-05-12T07:16:36.516Z,66792.56
2023-05-12T07:21:41.909Z,66850.75
2023-05-12T07:26:45.850Z,66858.28
2023-05-12T07:31:49.780Z,66867.91
2023-05-12T07:36:55.210Z,66831.81
2023-05-12T07:41:59.409Z,66858.75
2023-05-12T07:47:03.406Z,66856.13
2023-05-12T07:52:09.009Z,66857.75
2023-05-12T07:57:12.870Z,66873.28
2023-05-12T08:02:17.423Z,66824.38
2023-05-12T08:07:23.076Z,66881.00
2023-05-12T08:12:27.128Z,66916.41
2023-05-12T08:17:31.168Z,66889.63
2023-05-12T08:22:36.521Z,66926.09
2023-05-12T08:27:40.589Z,66961.28
2023-05-12T08:32:44.758Z,66963.38
2023-05-12T08:37:50.373Z,66937.50
2023-05-12T08:43:04.584Z,66979.00
2023-05-12T08:48:11.469Z,66995.84
2023-05-12T08:53:20.277Z,67002.25
2023-05-12T08:58:30.628Z,66987.16
2023-05-12T09:03:44.223Z,66990.91
2023-05-12T09:08:49.593Z,66960.72
2023-05-12T09:14:00.383Z,67048.97
2023-05-12T09:19:06.736Z,67019.44
2023-05-12T09:24:12.538Z,67063.72
2023-05-12T09:29:27.746Z,67107.41
2023-05-12T09:34:38.759Z,67099.72
2023-05-12T09:39:45.814Z,67031.34
2023-05-12T09:44:51.958Z,67070.06
2023-05-12T09:49:57.660Z,67108.50
2023-05-12T09:55:11.492Z,67064.13
2023-05-12T10:00:34.500Z,67085.31
2023-05-12T10:05:50.794Z,67049.78
2023-05-12T10:10:58.045Z,67117.59
2023-05-12T10:16:02.496Z,67080.94
2023-05-12T10:21:08.291Z,67095.00
2023-05-12T10:26:14.371Z,67110.13
2023-05-12T10:31:19.151Z,67080.94
2023-05-12T10:36:23.344Z,67202.28
2023-05-12T10:41:32.630Z,67086.84
2023-05-12T10:46:37.418Z,67086.31
2023-05-12T10:51:50.984Z,67097.72
2023-05-12T10:57:00.406Z,67174.84
2023-05-12T11:02:06.624Z,67140.75
2023-05-12T11:07:13.858Z,67074.44
2023-05-12T11:12:20.728Z,67094.47
2023-05-12T11:17:24.765Z,67212.69
2023-05-12T11:22:28.778Z,67231.56
2023-05-12T11:27:34.099Z,67347.06
2023-05-12T11:32:38.289Z,67272.50
2023-05-12T11:37:43.968Z,67241.72
2023-05-12T11:42:51.682Z,67396.19
2023-05-12T11:48:08.878Z,67450.38
2023-05-12T11:53:15.146Z,67303.34
2023-05-12T11:58:26.710Z,67273.09
2023-05-12T12:03:30.820Z,67276.34
2023-05-12T12:08:34.737Z,67284.59
2023-05-12T12:13:40.142Z,67367.19
2023-05-12T12:18:44.042Z,67328.75
2023-05-12T12:23:51.200Z,67307.59
2023-05-12T12:28:57.609Z,67433.63
2023-05-12T12:34:02.389Z,67393.06
2023-05-12T12:39:06.319Z,67440.78
2023-05-12T12:44:11.924Z,67340.09
2023-05-12T12:49:16.097Z,67367.59
2023-05-12T12:54:20.265Z,67390.44
2023-05-12T12:59:25.906Z,67318.00
2023-05-12T13:04:30.035Z,67397.88
2023-05-12T13:09:33.917Z,67379.63
2023-05-12T13:14:39.475Z,67386.09
2023-05-12T13:19:43.709Z,67417.94
2023-05-12T13:24:47.642Z,67397.41
2023-05-12T13:29:53.037Z,67374.63
2023-05-12T13:34:57.243Z,67324.41
2023-05-12T13:40:01.266Z,67433.69
2023-05-12T13:45:09.233Z,67430.94
2023-05-12T13:50:15.661Z,67423.44
2023-05-12T13:55:21.712Z,67370.38
2023-05-12T14:00:30.252Z,67422.69
2023-05-12T14:05:34.333Z,67600.34
2023-05-12T14:10:38.333Z,67664.22
2023-05-12T14:15:49.375Z,67420.59
2023-05-12T14:20:54.705Z,67313.69
2023-05-12T14:25:58.838Z,67364.97
2023-05-12T14:31:04.634Z,67386.00
2023-05-12T14:36:09.673Z,67379.69
2023-05-12T14:41:13.954Z,67244.56
2023-05-12T14:46:19.414Z,67283.44
2023-05-12T14:51:23.164Z,67278.53
2023-05-12T14:56:27.282Z,67302.81
2023-05-12T15:01:32.707Z,67347.81
2023-05-12T15:06:38.144Z,67354.22
2023-05-12T15:11:44.644Z,67347.81
2023-05-12T15:16:50.229Z,67297.34
2023-05-12T15:21:54.435Z,67285.53
2023-05-12T15:26:58.587Z,67295.88
2023-05-12T15:32:04.388Z,67309.91
2023-05-12T15:37:08.410Z,67407.06
2023-05-12T15:42:14.582Z,67423.97
2023-05-12T15:47:22.082Z,67308.16
2023-05-12T15:52:27.786Z,67298.44
2023-05-12T15:57:31.772Z,67193.72
2023-05-12T16:02:37.441Z,67101.56
2023-05-12T16:07:41.671Z,67049.72
2023-05-12T16:12:48.088Z,67064.22
2023-05-12T16:17:53.438Z,67020.50
2023-05-12T16:22:57.402Z,67005.88
2023-05-12T16:28:01.321Z,66986.09
2023-05-12T16:33:07.229Z,66977.38
2023-05-12T16:38:11.266Z,66978.47
2023-05-12T16:43:15.317Z,66942.88
2023-05-12T16:48:20.846Z,66945.13
2023-05-12T16:53:26.016Z,66970.44
2023-05-12T16:58:32.312Z,66954.81
2023-05-12T17:03:37.856Z,66945.66
2023-05-12T17:08:41.808Z,66959.66
2023-05-12T17:13:45.706Z,66978.47
2023-05-12T17:23:57.928Z,66950.31
2023-05-12T17:29:02.745Z,66933.81
2023-05-12T17:34:10.559Z,66899.28
2023-05-12T17:39:15.798Z,66906.16
2023-05-12T17:44:20.133Z,66875.53
2023-05-12T17:49:25.775Z,66873.91
2023-05-12T17:54:29.845Z,66796.44
2023-05-12T17:59:34.340Z,66830.50
2023-05-12T18:04:39.963Z,66828.75
2023-05-12T18:09:44.130Z,66841.59
2023-05-12T18:14:48.332Z,66813.50
2023-05-12T18:19:53.678Z,66781.28
2023-05-12T18:24:57.599Z,66754.81
2023-05-12T18:30:01.544Z,66742.53
2023-05-12T18:35:08.611Z,66794.66
2023-05-12T18:40:13.295Z,66750.00
2023-05-12T18:45:18.727Z,66738.84
2023-05-12T18:50:24.301Z,66719.31
2023-05-12T18:55:28.402Z,66686.56
2023-05-12T19:00:33.621Z,66670.34
2023-05-12T19:05:44.375Z,66660.72
2023-05-12T19:10:49.090Z,66672.56
2023-05-12T19:15:53.424Z,66694.53
2023-05-12T19:20:58.925Z,66629.63
2023-05-12T19:26:03.004Z,66626.38
2023-05-12T19:31:06.920Z,66594.59
2023-05-12T19:36:12.833Z,66562.44
2023-05-12T19:41:16.492Z,66561.88
2023-05-12T19:46:20.760Z,66506.97
2023-05-12T19:51:26.182Z,66522.03
2023-05-12T19:56:30.681Z,66566.09
2023-05-12T20:01:34.748Z,66558.56
2023-05-12T20:06:40.418Z,66559.13
2023-05-12T20:11:44.377Z,66540.91
2023-05-12T20:16:48.447Z,66520.50
2023-05-12T20:21:53.750Z,66553.13
2023-05-12T20:26:57.860Z,66503.22
2023-05-12T20:32:01.798Z,66510.22
2023-05-12T20:37:07.136Z,66515.56
2023-05-12T20:42:11.038Z,66480.28
2023-05-12T20:47:14.992Z,66494.16
2023-05-12T20:52:20.350Z,66498.41
2023-05-12T20:57:24.349Z,66458.19
2023-05-12T21:02:29.569Z,66436.16
2023-05-12T21:07:35.288Z,66387.75
2023-05-12T21:12:39.576Z,66418.91
2023-05-12T21:17:43.667Z,66424.28
2023-05-12T21:22:49.098Z,66439.38
2023-05-12T21:27:53.190Z,66273.00
2023-05-12T21:32:57.256Z,66299.84
2023-05-12T21:38:02.654Z,66253.63
2023-05-12T21:43:06.550Z,66291.19
2023-05-12T21:48:10.474Z,66316.56
2023-05-12T21:53:15.914Z,66363.69
2023-05-12T21:58:19.811Z,66371.09
2023-05-12T22:03:25.391Z,66302.50
2023-05-12T22:08:30.705Z,66272.94
2023-05-12T22:13:34.780Z,66321.22
2023-05-12T22:18:38.729Z,66296.53
2023-05-12T22:23:44.090Z,66217.59
2023-05-12T22:28:48.308Z,66184.00
2023-05-12T22:33:52.338Z,66131.50
2023-05-12T22:38:57.527Z,66207.59
2023-05-12T22:44:01.419Z,66193.03
2023-05-12T22:49:05.267Z,66198.38
2023-05-12T22:54:11.425Z,66177.91
2023-05-12T22:59:15.450Z,66276.22
2023-05-12T23:04:19.394Z,66317.09
2023-05-12T23:09:24.708Z,66257.81
2023-05-12T23:14:28.734Z,66142.47
2023-05-12T23:19:32.965Z,66235.00
2023-05-12T23:24:38.444Z,66226.16
2023-05-12T23:29:42.349Z,66170.06
2023-05-12T23:34:46.305Z,66233.22
2023-05-12T23:39:51.828Z,66184.38
2023-05-12T23:44:56.359Z,66241.81
2023-05-12T23:50:00.345Z,66183.38
2023-05-12T23:55:06.368Z,66144.25
